sensor_id;sensor_type;location;lat;lon;timestamp;P1;durP1;ratioP1;P2;durP2;ratioP2
40339;SDS011;26044;50.864;20.658;2023-02-01T00:00:32;20.45;;;9.20;;
40339;SDS011;26044;50.864;20.658;2023-02-01T00:03:00;20.40;;;8.52;;
40339;SDS011;26044;50.864;20.658;2023-02-01T00:05:28;20.85;;;8.52;;
40339;SDS011;26044;50.864;20.658;2023-02-01T00:07:55;23.90;;;9.57;;
40339;SDS011;26044;50.864;20.658;2023-02-01T00:10:23;24.92;;;9.35;;
40339;SDS011;26044;50.864;20.658;2023-02-01T00:12:50;24.23;;;10.15;;
40339;SDS011;26044;50.864;20.658;2023-02-01T00:15:18;22.88;;;9.90;;
40339;SDS011;26044;50.864;20.658;2023-02-01T00:17:47;24.13;;;9.93;;
40339;SDS011;26044;50.864;20.658;2023-02-01T00:20:14;23.55;;;8.95;;
40339;SDS011;26044;50.864;20.658;2023-02-01T00:22:41;21.67;;;8.23;;
40339;SDS011;26044;50.864;20.658;2023-02-01T00:25:08;21.58;;;9.23;;
40339;SDS011;26044;50.864;20.658;2023-02-01T00:27:35;21.08;;;8.35;;
40339;SDS011;26044;50.864;20.658;2023-02-01T00:30:02;19.50;;;8.35;;
40339;SDS011;26044;50.864;20.658;2023-02-01T00:32:29;22.95;;;7.82;;
40339;SDS011;26044;50.864;20.658;2023-02-01T00:34:58;18.15;;;7.72;;
40339;SDS011;26044;50.864;20.658;2023-02-01T00:37:25;19.40;;;7.20;;
40339;SDS011;26044;50.864;20.658;2023-02-01T00:39:51;23.60;;;7.97;;
40339;SDS011;26044;50.864;20.658;2023-02-01T00:42:21;20.55;;;7.97;;
40339;SDS011;26044;50.864;20.658;2023-02-01T00:44:47;16.58;;;6.65;;
40339;SDS011;26044;50.864;20.658;2023-02-01T00:47:14;17.70;;;6.80;;
40339;SDS011;26044;50.864;20.658;2023-02-01T00:49:41;20.60;;;7.10;;
40339;SDS011;26044;50.864;20.658;2023-02-01T00:52:08;18.48;;;6.75;;
40339;SDS011;26044;50.864;20.658;2023-02-01T00:54:35;19.30;;;7.43;;
40339;SDS011;26044;50.864;20.658;2023-02-01T00:57:03;18.52;;;6.45;;
40339;SDS011;26044;50.864;20.658;2023-02-01T00:59:30;17.73;;;5.47;;
40339;SDS011;26044;50.864;20.658;2023-02-01T01:01:56;17.08;;;5.70;;
40339;SDS011;26044;50.864;20.658;2023-02-01T01:04:23;16.25;;;6.95;;
40339;SDS011;26044;50.864;20.658;2023-02-01T01:06:50;16.60;;;6.22;;
40339;SDS011;26044;50.864;20.658;2023-02-01T01:09:18;17.33;;;6.15;;
40339;SDS011;26044;50.864;20.658;2023-02-01T01:11:45;17.10;;;6.35;;
40339;SDS011;26044;50.864;20.658;2023-02-01T01:14:11;18.77;;;5.90;;
40339;SDS011;26044;50.864;20.658;2023-02-01T01:16:38;20.48;;;7.28;;
40339;SDS011;26044;50.864;20.658;2023-02-01T01:19:05;18.60;;;6.53;;
40339;SDS011;26044;50.864;20.658;2023-02-01T01:21:32;19.52;;;6.63;;
40339;SDS011;26044;50.864;20.658;2023-02-01T01:23:59;15.48;;;5.85;;
40339;SDS011;26044;50.864;20.658;2023-02-01T01:26:27;15.30;;;5.38;;
40339;SDS011;26044;50.864;20.658;2023-02-01T01:28:56;15.88;;;5.10;;
40339;SDS011;26044;50.864;20.658;2023-02-01T01:31:25;17.83;;;5.13;;
40339;SDS011;26044;50.864;20.658;2023-02-01T01:33:53;11.85;;;4.55;;
40339;SDS011;26044;50.864;20.658;2023-02-01T01:36:22;14.00;;;4.53;;
40339;SDS011;26044;50.864;20.658;2023-02-01T01:38:49;13.05;;;3.65;;
40339;SDS011;26044;50.864;20.658;2023-02-01T01:41:17;12.90;;;3.15;;
40339;SDS011;26044;50.864;20.658;2023-02-01T01:46:20;18.23;;;3.25;;
40339;SDS011;26044;50.864;20.658;2023-02-01T01:48:50;13.25;;;2.88;;
40339;SDS011;26044;50.864;20.658;2023-02-01T01:51:25;12.80;;;3.05;;
40339;SDS011;26044;50.864;20.658;2023-02-01T01:54:41;10.20;;;2.40;;
40339;SDS011;26044;50.864;20.658;2023-02-01T01:56:49;16.10;;;3.00;;
40339;SDS011;26044;50.864;20.658;2023-02-01T01:59:20;10.02;;;3.20;;
40339;SDS011;26044;50.864;20.658;2023-02-01T02:01:52;12.57;;;2.92;;
40339;SDS011;26044;50.864;20.658;2023-02-01T02:04:19;14.50;;;2.90;;
40339;SDS011;26044;50.864;20.658;2023-02-01T02:07:05;14.43;;;3.00;;
40339;SDS011;26044;50.864;20.658;2023-02-01T02:09:36;13.90;;;3.10;;
40339;SDS011;26044;50.864;20.658;2023-02-01T02:12:08;10.68;;;2.72;;
40339;SDS011;26044;50.864;20.658;2023-02-01T02:14:37;15.20;;;2.92;;
40339;SDS011;26044;50.864;20.658;2023-02-01T02:20:15;13.18;;;3.10;;
40339;SDS011;26044;50.864;20.658;2023-02-01T02:34:46;16.88;;;3.85;;
40339;SDS011;26044;50.864;20.658;2023-02-01T02:37:43;17.55;;;3.70;;
40339;SDS011;26044;50.864;20.658;2023-02-01T02:43:23;21.45;;;4.45;;
40339;SDS011;26044;50.864;20.658;2023-02-01T02:49:46;16.48;;;3.00;;
40339;SDS011;26044;50.864;20.658;2023-02-01T02:52:41;13.20;;;3.22;;
40339;SDS011;26044;50.864;20.658;2023-02-01T02:55:30;12.13;;;2.90;;
40339;SDS011;26044;50.864;20.658;2023-02-01T02:57:59;14.27;;;2.65;;
40339;SDS011;26044;50.864;20.658;2023-02-01T03:00:45;19.33;;;3.40;;
40339;SDS011;26044;50.864;20.658;2023-02-01T03:03:31;14.20;;;4.15;;
40339;SDS011;26044;50.864;20.658;2023-02-01T03:06:16;16.33;;;3.08;;
40339;SDS011;26044;50.864;20.658;2023-02-01T03:08:44;13.18;;;3.05;;
40339;SDS011;26044;50.864;20.658;2023-02-01T03:11:13;17.60;;;5.22;;
40339;SDS011;26044;50.864;20.658;2023-02-01T03:13:50;17.75;;;6.18;;
40339;SDS011;26044;50.864;20.658;2023-02-01T03:16:24;16.77;;;6.68;;
40339;SDS011;26044;50.864;20.658;2023-02-01T03:21:45;10.82;;;3.22;;
40339;SDS011;26044;50.864;20.658;2023-02-01T03:24:17;15.65;;;3.20;;
40339;SDS011;26044;50.864;20.658;2023-02-01T03:27:10;12.73;;;3.90;;
40339;SDS011;26044;50.864;20.658;2023-02-01T03:30:09;14.38;;;3.83;;
40339;SDS011;26044;50.864;20.658;2023-02-01T03:32:59;14.63;;;4.07;;
40339;SDS011;26044;50.864;20.658;2023-02-01T03:35:33;13.18;;;2.80;;
40339;SDS011;26044;50.864;20.658;2023-02-01T03:38:04;14.38;;;3.60;;
40339;SDS011;26044;50.864;20.658;2023-02-01T03:40:42;15.10;;;3.30;;
40339;SDS011;26044;50.864;20.658;2023-02-01T03:43:16;15.63;;;3.05;;
40339;SDS011;26044;50.864;20.658;2023-02-01T03:45:46;11.45;;;3.80;;
40339;SDS011;26044;50.864;20.658;2023-02-01T03:48:19;12.00;;;3.15;;
40339;SDS011;26044;50.864;20.658;2023-02-01T03:50:49;19.38;;;3.58;;
40339;SDS011;26044;50.864;20.658;2023-02-01T03:53:21;17.98;;;3.83;;
40339;SDS011;26044;50.864;20.658;2023-02-01T03:55:57;13.70;;;3.05;;
40339;SDS011;26044;50.864;20.658;2023-02-01T03:58:24;18.75;;;3.85;;
40339;SDS011;26044;50.864;20.658;2023-02-01T04:00:55;18.17;;;4.80;;
40339;SDS011;26044;50.864;20.658;2023-02-01T04:03:24;14.60;;;4.10;;
40339;SDS011;26044;50.864;20.658;2023-02-01T04:05:52;15.50;;;3.60;;
40339;SDS011;26044;50.864;20.658;2023-02-01T04:08:20;17.27;;;4.80;;
40339;SDS011;26044;50.864;20.658;2023-02-01T04:10:47;18.27;;;3.58;;
40339;SDS011;26044;50.864;20.658;2023-02-01T04:13:14;16.92;;;3.75;;
40339;SDS011;26044;50.864;20.658;2023-02-01T04:15:40;15.80;;;3.38;;
40339;SDS011;26044;50.864;20.658;2023-02-01T04:18:07;20.42;;;4.13;;
40339;SDS011;26044;50.864;20.658;2023-02-01T04:20:34;22.75;;;3.80;;
40339;SDS011;26044;50.864;20.658;2023-02-01T04:23:01;17.38;;;4.18;;
40339;SDS011;26044;50.864;20.658;2023-02-01T04:25:29;14.38;;;3.45;;
40339;SDS011;26044;50.864;20.658;2023-02-01T04:27:56;14.68;;;3.17;;
40339;SDS011;26044;50.864;20.658;2023-02-01T04:30:25;19.80;;;3.55;;
40339;SDS011;26044;50.864;20.658;2023-02-01T04:32:52;17.60;;;3.10;;
40339;SDS011;26044;50.864;20.658;2023-02-01T04:35:28;17.30;;;3.33;;
40339;SDS011;26044;50.864;20.658;2023-02-01T04:37:55;20.17;;;3.45;;
40339;SDS011;26044;50.864;20.658;2023-02-01T04:40:21;22.40;;;4.85;;
40339;SDS011;26044;50.864;20.658;2023-02-01T04:42:49;20.45;;;4.32;;
40339;SDS011;26044;50.864;20.658;2023-02-01T04:45:15;20.95;;;3.60;;
40339;SDS011;26044;50.864;20.658;2023-02-01T04:47:43;17.02;;;3.95;;
40339;SDS011;26044;50.864;20.658;2023-02-01T04:50:15;19.30;;;4.00;;
40339;SDS011;26044;50.864;20.658;2023-02-01T04:52:42;17.05;;;4.00;;
40339;SDS011;26044;50.864;20.658;2023-02-01T04:55:11;19.30;;;4.00;;
40339;SDS011;26044;50.864;20.658;2023-02-01T04:57:39;18.15;;;3.95;;
40339;SDS011;26044;50.864;20.658;2023-02-01T05:00:07;19.92;;;4.63;;
40339;SDS011;26044;50.864;20.658;2023-02-01T05:02:36;18.02;;;3.80;;
40339;SDS011;26044;50.864;20.658;2023-02-01T05:05:04;21.30;;;4.35;;
40339;SDS011;26044;50.864;20.658;2023-02-01T05:07:31;20.77;;;4.97;;
40339;SDS011;26044;50.864;20.658;2023-02-01T05:09:58;19.58;;;5.20;;
40339;SDS011;26044;50.864;20.658;2023-02-01T05:12:24;20.38;;;4.22;;
40339;SDS011;26044;50.864;20.658;2023-02-01T05:15:10;23.02;;;4.97;;
40339;SDS011;26044;50.864;20.658;2023-02-01T05:17:37;15.20;;;3.83;;
40339;SDS011;26044;50.864;20.658;2023-02-01T05:20:06;17.65;;;3.58;;
40339;SDS011;26044;50.864;20.658;2023-02-01T05:22:34;16.35;;;3.97;;
40339;SDS011;26044;50.864;20.658;2023-02-01T05:25:03;21.05;;;4.22;;
40339;SDS011;26044;50.864;20.658;2023-02-01T05:30:00;16.13;;;3.65;;
40339;SDS011;26044;50.864;20.658;2023-02-01T05:32:29;17.45;;;4.10;;
40339;SDS011;26044;50.864;20.658;2023-02-01T05:34:56;16.58;;;3.17;;
40339;SDS011;26044;50.864;20.658;2023-02-01T05:37:23;22.50;;;3.78;;
40339;SDS011;26044;50.864;20.658;2023-02-01T05:39:53;18.58;;;3.28;;
40339;SDS011;26044;50.864;20.658;2023-02-01T05:42:26;16.77;;;3.17;;
40339;SDS011;26044;50.864;20.658;2023-02-01T05:44:52;18.85;;;5.00;;
40339;SDS011;26044;50.864;20.658;2023-02-01T05:47:20;17.63;;;3.60;;
40339;SDS011;26044;50.864;20.658;2023-02-01T05:49:48;25.50;;;5.50;;
40339;SDS011;26044;50.864;20.658;2023-02-01T05:52:15;18.63;;;3.63;;
40339;SDS011;26044;50.864;20.658;2023-02-01T05:54:45;23.42;;;3.40;;
40339;SDS011;26044;50.864;20.658;2023-02-01T05:57:17;29.52;;;4.72;;
40339;SDS011;26044;50.864;20.658;2023-02-01T05:59:44;19.75;;;4.50;;
40339;SDS011;26044;50.864;20.658;2023-02-01T06:02:11;22.08;;;4.68;;
40339;SDS011;26044;50.864;20.658;2023-02-01T06:04:40;15.70;;;4.13;;
40339;SDS011;26044;50.864;20.658;2023-02-01T06:07:15;27.65;;;4.97;;
40339;SDS011;26044;50.864;20.658;2023-02-01T06:09:55;24.45;;;4.90;;
40339;SDS011;26044;50.864;20.658;2023-02-01T06:12:21;20.50;;;4.32;;
40339;SDS011;26044;50.864;20.658;2023-02-01T06:14:49;22.77;;;4.65;;
40339;SDS011;26044;50.864;20.658;2023-02-01T06:17:16;23.20;;;4.32;;
40339;SDS011;26044;50.864;20.658;2023-02-01T06:19:43;20.77;;;5.10;;
40339;SDS011;26044;50.864;20.658;2023-02-01T06:22:11;17.25;;;4.57;;
40339;SDS011;26044;50.864;20.658;2023-02-01T06:24:37;19.23;;;4.18;;
40339;SDS011;26044;50.864;20.658;2023-02-01T06:27:04;25.75;;;4.95;;
40339;SDS011;26044;50.864;20.658;2023-02-01T06:29:31;16.23;;;3.90;;
40339;SDS011;26044;50.864;20.658;2023-02-01T06:31:58;22.42;;;4.63;;
40339;SDS011;26044;50.864;20.658;2023-02-01T06:34:26;19.35;;;4.15;;
40339;SDS011;26044;50.864;20.658;2023-02-01T06:36:53;21.10;;;5.25;;
40339;SDS011;26044;50.864;20.658;2023-02-01T06:39:22;24.25;;;5.25;;
40339;SDS011;26044;50.864;20.658;2023-02-01T06:41:49;26.15;;;5.00;;
40339;SDS011;26044;50.864;20.658;2023-02-01T06:44:16;22.02;;;6.28;;
40339;SDS011;26044;50.864;20.658;2023-02-01T06:46:43;20.15;;;5.10;;
40339;SDS011;26044;50.864;20.658;2023-02-01T06:49:10;19.17;;;4.07;;
40339;SDS011;26044;50.864;20.658;2023-02-01T06:51:37;23.77;;;5.22;;
40339;SDS011;26044;50.864;20.658;2023-02-01T06:54:04;22.10;;;5.03;;
40339;SDS011;26044;50.864;20.658;2023-02-01T06:56:31;25.88;;;6.32;;
40339;SDS011;26044;50.864;20.658;2023-02-01T06:58:58;21.67;;;4.32;;
40339;SDS011;26044;50.864;20.658;2023-02-01T07:01:33;26.48;;;4.70;;
40339;SDS011;26044;50.864;20.658;2023-02-01T07:04:02;21.20;;;5.18;;
40339;SDS011;26044;50.864;20.658;2023-02-01T07:06:32;24.90;;;5.53;;
40339;SDS011;26044;50.864;20.658;2023-02-01T07:08:58;30.48;;;4.90;;
40339;SDS011;26044;50.864;20.658;2023-02-01T07:11:29;23.90;;;4.05;;
40339;SDS011;26044;50.864;20.658;2023-02-01T07:13:59;21.67;;;4.37;;
40339;SDS011;26044;50.864;20.658;2023-02-01T07:16:27;19.50;;;5.05;;
40339;SDS011;26044;50.864;20.658;2023-02-01T07:19:03;22.40;;;5.50;;
40339;SDS011;26044;50.864;20.658;2023-02-01T07:21:33;22.60;;;5.63;;
40339;SDS011;26044;50.864;20.658;2023-02-01T07:24:00;32.15;;;6.57;;
40339;SDS011;26044;50.864;20.658;2023-02-01T07:26:27;22.48;;;5.43;;
40339;SDS011;26044;50.864;20.658;2023-02-01T07:28:54;21.63;;;5.28;;
40339;SDS011;26044;50.864;20.658;2023-02-01T07:31:21;26.92;;;5.45;;
40339;SDS011;26044;50.864;20.658;2023-02-01T07:33:48;28.10;;;5.80;;
40339;SDS011;26044;50.864;20.658;2023-02-01T07:36:18;31.03;;;5.23;;
40339;SDS011;26044;50.864;20.658;2023-02-01T07:38:50;15.75;;;4.32;;
40339;SDS011;26044;50.864;20.658;2023-02-01T07:41:24;22.23;;;3.95;;
40339;SDS011;26044;50.864;20.658;2023-02-01T07:43:56;21.98;;;4.13;;
40339;SDS011;26044;50.864;20.658;2023-02-01T07:46:25;22.00;;;4.60;;
40339;SDS011;26044;50.864;20.658;2023-02-01T07:48:52;22.75;;;5.10;;
40339;SDS011;26044;50.864;20.658;2023-02-01T07:51:30;27.17;;;5.43;;
40339;SDS011;26044;50.864;20.658;2023-02-01T07:53:57;27.83;;;4.95;;
40339;SDS011;26044;50.864;20.658;2023-02-01T07:56:27;20.38;;;5.63;;
40339;SDS011;26044;50.864;20.658;2023-02-01T07:58:54;22.50;;;5.57;;
40339;SDS011;26044;50.864;20.658;2023-02-01T08:01:28;29.02;;;5.82;;
40339;SDS011;26044;50.864;20.658;2023-02-01T08:06:26;21.70;;;5.32;;
40339;SDS011;26044;50.864;20.658;2023-02-01T08:08:57;26.58;;;5.55;;
40339;SDS011;26044;50.864;20.658;2023-02-01T08:11:37;24.27;;;5.53;;
40339;SDS011;26044;50.864;20.658;2023-02-01T08:14:04;21.63;;;6.22;;
40339;SDS011;26044;50.864;20.658;2023-02-01T08:16:32;23.25;;;5.78;;
40339;SDS011;26044;50.864;20.658;2023-02-01T08:19:02;22.35;;;4.75;;
40339;SDS011;26044;50.864;20.658;2023-02-01T08:21:30;22.38;;;4.78;;
40339;SDS011;26044;50.864;20.658;2023-02-01T08:24:03;20.27;;;5.13;;
40339;SDS011;26044;50.864;20.658;2023-02-01T08:26:32;26.02;;;5.10;;
40339;SDS011;26044;50.864;20.658;2023-02-01T08:29:00;26.40;;;5.07;;
40339;SDS011;26044;50.864;20.658;2023-02-01T08:31:28;27.67;;;5.53;;
40339;SDS011;26044;50.864;20.658;2023-02-01T08:33:57;22.48;;;4.75;;
40339;SDS011;26044;50.864;20.658;2023-02-01T08:36:26;24.55;;;5.10;;
40339;SDS011;26044;50.864;20.658;2023-02-01T08:38:54;20.45;;;4.80;;
40339;SDS011;26044;50.864;20.658;2023-02-01T08:41:23;23.48;;;5.85;;
40339;SDS011;26044;50.864;20.658;2023-02-01T08:43:51;26.00;;;5.57;;
40339;SDS011;26044;50.864;20.658;2023-02-01T08:46:20;21.55;;;5.07;;
40339;SDS011;26044;50.864;20.658;2023-02-01T08:48:48;19.05;;;5.10;;
40339;SDS011;26044;50.864;20.658;2023-02-01T08:51:16;18.67;;;5.85;;
40339;SDS011;26044;50.864;20.658;2023-02-01T08:53:45;21.00;;;5.47;;
40339;SDS011;26044;50.864;20.658;2023-02-01T08:56:13;25.38;;;5.85;;
40339;SDS011;26044;50.864;20.658;2023-02-01T08:58:41;26.38;;;5.85;;
40339;SDS011;26044;50.864;20.658;2023-02-01T09:01:09;25.30;;;7.07;;
40339;SDS011;26044;50.864;20.658;2023-02-01T09:03:39;25.00;;;6.40;;
40339;SDS011;26044;50.864;20.658;2023-02-01T09:06:07;23.38;;;5.22;;
40339;SDS011;26044;50.864;20.658;2023-02-01T09:08:36;30.87;;;6.23;;
40339;SDS011;26044;50.864;20.658;2023-02-01T09:11:05;23.45;;;5.40;;
40339;SDS011;26044;50.864;20.658;2023-02-01T09:13:34;20.58;;;5.47;;
40339;SDS011;26044;50.864;20.658;2023-02-01T09:16:02;22.10;;;5.43;;
40339;SDS011;26044;50.864;20.658;2023-02-01T09:18:30;30.65;;;6.63;;
40339;SDS011;26044;50.864;20.658;2023-02-01T09:20:57;20.73;;;4.97;;
40339;SDS011;26044;50.864;20.658;2023-02-01T09:23:24;30.42;;;6.60;;
40339;SDS011;26044;50.864;20.658;2023-02-01T09:25:51;21.00;;;5.57;;
40339;SDS011;26044;50.864;20.658;2023-02-01T09:28:18;25.85;;;5.32;;
40339;SDS011;26044;50.864;20.658;2023-02-01T09:30:45;24.90;;;6.53;;
40339;SDS011;26044;50.864;20.658;2023-02-01T09:33:12;24.95;;;5.75;;
40339;SDS011;26044;50.864;20.658;2023-02-01T09:35:39;22.35;;;5.22;;
40339;SDS011;26044;50.864;20.658;2023-02-01T09:38:06;23.35;;;6.00;;
40339;SDS011;26044;50.864;20.658;2023-02-01T09:40:33;27.55;;;6.13;;
40339;SDS011;26044;50.864;20.658;2023-02-01T09:48:24;25.85;;;5.80;;
40339;SDS011;26044;50.864;20.658;2023-02-01T09:50:58;28.55;;;6.28;;
40339;SDS011;26044;50.864;20.658;2023-02-01T09:53:37;28.23;;;6.43;;
40339;SDS011;26044;50.864;20.658;2023-02-01T09:56:18;24.02;;;6.75;;
40339;SDS011;26044;50.864;20.658;2023-02-01T10:01:54;21.17;;;5.88;;
40339;SDS011;26044;50.864;20.658;2023-02-01T10:04:22;21.48;;;5.00;;
40339;SDS011;26044;50.864;20.658;2023-02-01T10:12:37;31.65;;;7.20;;
40339;SDS011;26044;50.864;20.658;2023-02-01T10:15:22;27.35;;;7.20;;
40339;SDS011;26044;50.864;20.658;2023-02-01T10:18:11;26.00;;;8.07;;
40339;SDS011;26044;50.864;20.658;2023-02-01T10:26:55;25.90;;;6.10;;
40339;SDS011;26044;50.864;20.658;2023-02-01T10:29:30;21.38;;;5.25;;
40339;SDS011;26044;50.864;20.658;2023-02-01T10:32:07;30.58;;;6.63;;
40339;SDS011;26044;50.864;20.658;2023-02-01T10:34:57;17.40;;;5.00;;
40339;SDS011;26044;50.864;20.658;2023-02-01T10:37:29;28.27;;;6.65;;
40339;SDS011;26044;50.864;20.658;2023-02-01T10:39:59;20.48;;;5.15;;
40339;SDS011;26044;50.864;20.658;2023-02-01T10:42:32;25.48;;;6.13;;
40339;SDS011;26044;50.864;20.658;2023-02-01T10:44:59;22.75;;;6.10;;
40339;SDS011;26044;50.864;20.658;2023-02-01T10:47:29;22.10;;;7.22;;
40339;SDS011;26044;50.864;20.658;2023-02-01T10:52:46;29.73;;;8.80;;
40339;SDS011;26044;50.864;20.658;2023-02-01T10:55:35;36.83;;;10.88;;
40339;SDS011;26044;50.864;20.658;2023-02-01T10:58:14;26.00;;;8.63;;
40339;SDS011;26044;50.864;20.658;2023-02-01T11:00:44;23.55;;;7.50;;
40339;SDS011;26044;50.864;20.658;2023-02-01T11:03:57;25.23;;;7.78;;
40339;SDS011;26044;50.864;20.658;2023-02-01T11:14:15;24.60;;;6.78;;
40339;SDS011;26044;50.864;20.658;2023-02-01T11:16:52;27.73;;;8.13;;
40339;SDS011;26044;50.864;20.658;2023-02-01T11:19:43;25.23;;;6.53;;
40339;SDS011;26044;50.864;20.658;2023-02-01T11:22:21;23.13;;;5.95;;
40339;SDS011;26044;50.864;20.658;2023-02-01T11:24:51;24.25;;;6.72;;
40339;SDS011;26044;50.864;20.658;2023-02-01T11:27:20;26.60;;;7.07;;
40339;SDS011;26044;50.864;20.658;2023-02-01T11:29:55;22.55;;;6.90;;
40339;SDS011;26044;50.864;20.658;2023-02-01T11:32:25;24.00;;;6.70;;
40339;SDS011;26044;50.864;20.658;2023-02-01T11:35:03;23.65;;;5.82;;
40339;SDS011;26044;50.864;20.658;2023-02-01T11:37:39;22.77;;;6.03;;
40339;SDS011;26044;50.864;20.658;2023-02-01T11:42:53;19.98;;;5.97;;
40339;SDS011;26044;50.864;20.658;2023-02-01T11:45:26;22.73;;;6.28;;
40339;SDS011;26044;50.864;20.658;2023-02-01T11:47:56;23.38;;;5.30;;
40339;SDS011;26044;50.864;20.658;2023-02-01T11:50:34;22.35;;;5.55;;
40339;SDS011;26044;50.864;20.658;2023-02-01T11:56:08;22.70;;;5.60;;
40339;SDS011;26044;50.864;20.658;2023-02-01T12:01:52;19.25;;;5.25;;
40339;SDS011;26044;50.864;20.658;2023-02-01T12:04:51;24.77;;;5.53;;
40339;SDS011;26044;50.864;20.658;2023-02-01T12:12:59;24.20;;;5.57;;
40339;SDS011;26044;50.864;20.658;2023-02-01T12:15:41;22.70;;;5.60;;
40339;SDS011;26044;50.864;20.658;2023-02-01T12:32:50;20.17;;;5.90;;
40339;SDS011;26044;50.864;20.658;2023-02-01T12:38:37;20.50;;;5.05;;
40339;SDS011;26044;50.864;20.658;2023-02-01T12:47:16;22.15;;;5.70;;
40339;SDS011;26044;50.864;20.658;2023-02-01T12:52:51;31.83;;;6.82;;
40339;SDS011;26044;50.864;20.658;2023-02-01T12:57:56;22.17;;;5.97;;
40339;SDS011;26044;50.864;20.658;2023-02-01T13:00:59;26.17;;;6.85;;
40339;SDS011;26044;50.864;20.658;2023-02-01T13:03:48;22.58;;;5.95;;
40339;SDS011;26044;50.864;20.658;2023-02-01T13:06:28;23.40;;;6.32;;
40339;SDS011;26044;50.864;20.658;2023-02-01T13:11:46;19.67;;;5.00;;
40339;SDS011;26044;50.864;20.658;2023-02-01T13:14:22;22.08;;;5.50;;
40339;SDS011;26044;50.864;20.658;2023-02-01T13:17:16;21.20;;;5.15;;
40339;SDS011;26044;50.864;20.658;2023-02-01T13:19:52;23.00;;;4.50;;
40339;SDS011;26044;50.864;20.658;2023-02-01T13:22:25;18.05;;;3.95;;
40339;SDS011;26044;50.864;20.658;2023-02-01T13:25:12;18.08;;;4.78;;
40339;SDS011;26044;50.864;20.658;2023-02-01T13:27:45;17.13;;;4.32;;
40339;SDS011;26044;50.864;20.658;2023-02-01T13:30:20;24.33;;;6.22;;
40339;SDS011;26044;50.864;20.658;2023-02-01T13:35:53;21.73;;;6.53;;
40339;SDS011;26044;50.864;20.658;2023-02-01T13:38:32;24.77;;;5.97;;
40339;SDS011;26044;50.864;20.658;2023-02-01T13:41:29;21.88;;;5.90;;
40339;SDS011;26044;50.864;20.658;2023-02-01T13:47:00;18.83;;;6.55;;
40339;SDS011;26044;50.864;20.658;2023-02-01T13:49:32;25.98;;;7.32;;
40339;SDS011;26044;50.864;20.658;2023-02-01T13:52:05;26.60;;;7.30;;
40339;SDS011;26044;50.864;20.658;2023-02-01T13:54:33;20.05;;;6.53;;
40339;SDS011;26044;50.864;20.658;2023-02-01T13:57:03;24.90;;;6.65;;
40339;SDS011;26044;50.864;20.658;2023-02-01T14:05:03;22.30;;;6.90;;
40339;SDS011;26044;50.864;20.658;2023-02-01T14:07:34;25.17;;;7.63;;
40339;SDS011;26044;50.864;20.658;2023-02-01T14:16:16;19.25;;;5.97;;
40339;SDS011;26044;50.864;20.658;2023-02-01T14:23:58;24.20;;;7.80;;
40339;SDS011;26044;50.864;20.658;2023-02-01T14:26:26;22.60;;;8.02;;
40339;SDS011;26044;50.864;20.658;2023-02-01T14:29:09;31.83;;;7.72;;
40339;SDS011;26044;50.864;20.658;2023-02-01T14:32:00;25.42;;;9.60;;
40339;SDS011;26044;50.864;20.658;2023-02-01T14:37:10;23.00;;;7.43;;
40339;SDS011;26044;50.864;20.658;2023-02-01T14:42:16;21.95;;;7.15;;
40339;SDS011;26044;50.864;20.658;2023-02-01T14:44:54;23.85;;;8.25;;
40339;SDS011;26044;50.864;20.658;2023-02-01T14:47:42;19.15;;;6.35;;
40339;SDS011;26044;50.864;20.658;2023-02-01T14:50:13;21.80;;;6.30;;
40339;SDS011;26044;50.864;20.658;2023-02-01T14:58:15;21.13;;;5.80;;
40339;SDS011;26044;50.864;20.658;2023-02-01T15:00:59;21.45;;;6.07;;
40339;SDS011;26044;50.864;20.658;2023-02-01T15:03:40;25.67;;;6.53;;
40339;SDS011;26044;50.864;20.658;2023-02-01T15:14:28;22.60;;;6.72;;
40339;SDS011;26044;50.864;20.658;2023-02-01T15:16:57;25.55;;;7.70;;
40339;SDS011;26044;50.864;20.658;2023-02-01T15:19:25;21.98;;;6.90;;
40339;SDS011;26044;50.864;20.658;2023-02-01T15:21:54;18.50;;;5.53;;
40339;SDS011;26044;50.864;20.658;2023-02-01T15:24:23;19.58;;;5.15;;
40339;SDS011;26044;50.864;20.658;2023-02-01T15:26:55;19.20;;;6.43;;
40339;SDS011;26044;50.864;20.658;2023-02-01T15:29:29;24.08;;;7.95;;
40339;SDS011;26044;50.864;20.658;2023-02-01T15:31:58;19.73;;;6.95;;
40339;SDS011;26044;50.864;20.658;2023-02-01T15:34:43;23.85;;;8.05;;
40339;SDS011;26044;50.864;20.658;2023-02-01T15:37:14;23.10;;;7.60;;
40339;SDS011;26044;50.864;20.658;2023-02-01T15:42:56;19.33;;;7.53;;
40339;SDS011;26044;50.864;20.658;2023-02-01T15:45:25;27.05;;;8.68;;
40339;SDS011;26044;50.864;20.658;2023-02-01T15:47:55;24.48;;;9.50;;
40339;SDS011;26044;50.864;20.658;2023-02-01T15:50:26;21.73;;;8.25;;
40339;SDS011;26044;50.864;20.658;2023-02-01T15:52:57;25.45;;;8.73;;
40339;SDS011;26044;50.864;20.658;2023-02-01T15:55:30;24.52;;;9.02;;
40339;SDS011;26044;50.864;20.658;2023-02-01T15:58:18;24.48;;;8.27;;
40339;SDS011;26044;50.864;20.658;2023-02-01T16:00:50;21.65;;;8.13;;
40339;SDS011;26044;50.864;20.658;2023-02-01T16:03:33;19.90;;;7.18;;
40339;SDS011;26044;50.864;20.658;2023-02-01T16:06:04;21.60;;;7.28;;
40339;SDS011;26044;50.864;20.658;2023-02-01T16:08:53;21.20;;;8.63;;
40339;SDS011;26044;50.864;20.658;2023-02-01T16:11:27;21.80;;;8.40;;
40339;SDS011;26044;50.864;20.658;2023-02-01T16:13:57;21.92;;;7.78;;
40339;SDS011;26044;50.864;20.658;2023-02-01T16:16:25;20.50;;;7.20;;
40339;SDS011;26044;50.864;20.658;2023-02-01T16:18:54;19.33;;;7.55;;
40339;SDS011;26044;50.864;20.658;2023-02-01T16:21:21;22.35;;;8.43;;
40339;SDS011;26044;50.864;20.658;2023-02-01T16:23:51;25.20;;;9.05;;
40339;SDS011;26044;50.864;20.658;2023-02-01T16:28:46;21.45;;;8.27;;
40339;SDS011;26044;50.864;20.658;2023-02-01T16:31:15;22.35;;;8.57;;
40339;SDS011;26044;50.864;20.658;2023-02-01T16:33:46;25.35;;;9.10;;
40339;SDS011;26044;50.864;20.658;2023-02-01T16:36:19;25.63;;;9.50;;
40339;SDS011;26044;50.864;20.658;2023-02-01T16:38:47;23.92;;;9.27;;
40339;SDS011;26044;50.864;20.658;2023-02-01T16:41:17;25.33;;;8.93;;
40339;SDS011;26044;50.864;20.658;2023-02-01T17:20:59;20.05;;;7.20;;
40339;SDS011;26044;50.864;20.658;2023-02-01T17:23:29;19.13;;;7.18;;
40339;SDS011;26044;50.864;20.658;2023-02-01T17:25:58;22.10;;;9.18;;
40339;SDS011;26044;50.864;20.658;2023-02-01T17:28:28;22.37;;;7.93;;
40339;SDS011;26044;50.864;20.658;2023-02-01T17:30:55;21.90;;;7.85;;
40339;SDS011;26044;50.864;20.658;2023-02-01T17:33:24;22.33;;;8.68;;
40339;SDS011;26044;50.864;20.658;2023-02-01T17:36:02;20.83;;;8.75;;
40339;SDS011;26044;50.864;20.658;2023-02-01T17:38:31;26.90;;;9.30;;
40339;SDS011;26044;50.864;20.658;2023-02-01T17:40:59;22.67;;;8.90;;
40339;SDS011;26044;50.864;20.658;2023-02-01T17:43:26;27.05;;;10.13;;
40339;SDS011;26044;50.864;20.658;2023-02-01T17:45:54;22.83;;;9.52;;
40339;SDS011;26044;50.864;20.658;2023-02-01T17:48:37;23.70;;;10.65;;
40339;SDS011;26044;50.864;20.658;2023-02-01T17:51:15;25.75;;;11.25;;
40339;SDS011;26044;50.864;20.658;2023-02-01T17:53:46;26.42;;;9.38;;
40339;SDS011;26044;50.864;20.658;2023-02-01T17:56:22;31.58;;;12.05;;
40339;SDS011;26044;50.864;20.658;2023-02-01T17:58:50;25.73;;;10.63;;
40339;SDS011;26044;50.864;20.658;2023-02-01T18:01:23;26.25;;;10.32;;